sensor_id;sensor_type;location;lat;lon;timestamp;pressure;altitude;pressure_sealevel;temperature;humidity
55468;BME280;41332;42.702;23.200;2023-05-07T16:57:37;93999.13;;;18.78;44.60
55468;BME280;41332;42.702;23.200;2023-05-07T17:00:03;94002.53;;;18.79;45.08
55468;BME280;41332;42.702;23.200;2023-05-07T17:02:31;94009.75;;;18.78;45.28
55468;BME280;41332;42.702;23.200;2023-05-07T17:04:57;94012.81;;;18.84;44.86
55468;BME280;41332;42.702;23.200;2023-05-07T17:07:25;94012.06;;;18.87;44.26
55468;BME280;41332;42.702;23.200;2023-05-07T17:09:51;94019.28;;;18.87;44.50
55468;BME280;41332;42.702;23.200;2023-05-07T17:12:16;94024.22;;;18.81;44.88
55468;BME280;41332;42.702;23.200;2023-05-07T17:14:41;94015.06;;;18.78;44.69
55468;BME280;41332;42.702;23.200;2023-05-07T17:17:07;94026.47;;;18.72;44.99
55468;BME280;41332;42.702;23.200;2023-05-07T17:19:34;94031.34;;;18.66;44.88
55468;BME280;41332;42.702;23.200;2023-05-07T17:22:01;94032.16;;;18.70;45.10
55468;BME280;41332;42.702;23.200;2023-05-07T17:24:27;94028.34;;;18.68;44.73
55468;BME280;41332;42.702;23.200;2023-05-07T17:26:52;94033.66;;;18.68;45.44
55468;BME280;41332;42.702;23.200;2023-05-07T17:29:18;94040.09;;;18.63;45.72
55468;BME280;41332;42.702;23.200;2023-05-07T17:31:44;94046.97;;;18.68;45.36
55468;BME280;41332;42.702;23.200;2023-05-07T17:34:09;94046.22;;;18.71;45.18
55468;BME280;41332;42.702;23.200;2023-05-07T17:36:35;94042.00;;;18.66;45.51
55468;BME280;41332;42.702;23.200;2023-05-07T17:39:01;94050.34;;;18.65;46.25
55468;BME280;41332;42.702;23.200;2023-05-07T17:41:27;94051.09;;;18.61;46.75
55468;BME280;41332;42.702;23.200;2023-05-07T17:43:55;94048.78;;;18.56;46.76
55468;BME280;41332;42.702;23.200;2023-05-07T17:46:21;94056.00;;;18.56;46.59
55468;BME280;41332;42.702;23.200;2023-05-07T17:48:46;94055.97;;;18.49;48.18
55468;BME280;41332;42.702;23.200;2023-05-07T17:51:11;94062.75;;;18.39;48.81
55468;BME280;41332;42.702;23.200;2023-05-07T17:53:37;94058.91;;;18.36;49.51
55468;BME280;41332;42.702;23.200;2023-05-07T17:56:03;94054.66;;;18.24;49.65
55468;BME280;41332;42.702;23.200;2023-05-07T17:58:28;94053.00;;;18.05;49.75
55468;BME280;41332;42.702;23.200;2023-05-07T18:00:53;94061.31;;;18.00;49.96
55468;BME280;41332;42.702;23.200;2023-05-07T18:03:19;94057.81;;;17.92;49.53
55468;BME280;41332;42.702;23.200;2023-05-07T18:05:45;94055.44;;;17.80;50.38
55468;BME280;41332;42.702;23.200;2023-05-07T18:08:11;94057.91;;;17.58;51.77
55468;BME280;41332;42.702;23.200;2023-05-07T18:10:36;94058.19;;;17.46;51.08
55468;BME280;41332;42.702;23.200;2023-05-07T18:13:01;94064.97;;;17.43;51.01
55468;BME280;41332;42.702;23.200;2023-05-07T18:15:27;94066.81;;;17.36;51.17
55468;BME280;41332;42.702;23.200;2023-05-07T18:17:55;94068.56;;;17.24;50.11
55468;BME280;41332;42.702;23.200;2023-05-07T18:20:21;94076.91;;;17.23;50.21
55468;BME280;41332;42.702;23.200;2023-05-07T18:22:46;94085.19;;;17.21;51.88
55468;BME280;41332;42.702;23.200;2023-05-07T18:25:11;94084.38;;;17.13;52.78
55468;BME280;41332;42.702;23.200;2023-05-07T18:27:37;94087.63;;;17.00;53.08
55468;BME280;41332;42.702;23.200;2023-05-07T18:30:02;94087.22;;;16.97;52.93
55468;BME280;41332;42.702;23.200;2023-05-07T18:32:28;94093.06;;;16.84;53.55
55468;BME280;41332;42.702;23.200;2023-05-07T18:34:53;94093.13;;;16.87;53.31
55468;BME280;41332;42.702;23.200;2023-05-07T18:37:19;94098.03;;;16.85;53.55
55468;BME280;41332;42.702;23.200;2023-05-07T18:39:44;94101.63;;;16.73;54.17
55468;BME280;41332;42.702;23.200;2023-05-07T18:42:11;94097.06;;;16.70;54.13
55468;BME280;41332;42.702;23.200;2023-05-07T18:44:36;94105.56;;;16.56;54.39
55468;BME280;41332;42.702;23.200;2023-05-07T18:47:05;94108.53;;;16.51;54.31
55468;BME280;41332;42.702;23.200;2023-05-07T18:49:44;94106.84;;;16.39;54.21
55468;BME280;41332;42.702;23.200;2023-05-07T18:52:10;94118.41;;;16.27;55.34
55468;BME280;41332;42.702;23.200;2023-05-07T18:54:35;94104.28;;;16.20;55.18
55468;BME280;41332;42.702;23.200;2023-05-07T18:57:01;94122.72;;;16.12;55.85
55468;BME280;41332;42.702;23.200;2023-05-07T18:59:26;94118.78;;;16.03;56.16
55468;BME280;41332;42.702;23.200;2023-05-07T19:01:51;94123.44;;;15.86;57.00
55468;BME280;41332;42.702;23.200;2023-05-07T19:04:17;94128.88;;;15.74;57.56
55468;BME280;41332;42.702;23.200;2023-05-07T19:06:42;94119.97;;;15.62;57.25
55468;BME280;41332;42.702;23.200;2023-05-07T19:09:08;94121.84;;;15.62;57.10
55468;BME280;41332;42.702;23.200;2023-05-07T19:11:33;94120.94;;;15.54;57.76
55468;BME280;41332;42.702;23.200;2023-05-07T19:13:59;94128.06;;;15.50;58.02
55468;BME280;41332;42.702;23.200;2023-05-07T19:16:24;94130.44;;;15.36;58.02
55468;BME280;41332;42.702;23.200;2023-05-07T19:18:50;94126.72;;;15.21;59.39
55468;BME280;41332;42.702;23.200;2023-05-07T19:21:15;94133.44;;;15.14;58.92
55468;BME280;41332;42.702;23.200;2023-05-07T19:23:41;94136.75;;;15.11;58.52
55468;BME280;41332;42.702;23.200;2023-05-07T19:26:10;94137.81;;;15.07;60.12
55468;BME280;41332;42.702;23.200;2023-05-07T19:28:39;94141.56;;;15.06;58.72
55468;BME280;41332;42.702;23.200;2023-05-07T19:31:05;94148.03;;;15.08;58.75
55468;BME280;41332;42.702;23.200;2023-05-07T19:33:30;94147.47;;;14.99;59.60
55468;BME280;41332;42.702;23.200;2023-05-07T19:35:57;94152.22;;;14.90;59.93
55468;BME280;41332;42.702;23.200;2023-05-07T19:38:26;94148.56;;;14.78;60.70
55468;BME280;41332;42.702;23.200;2023-05-07T19:40:52;94154.19;;;14.77;60.25
55468;BME280;41332;42.702;23.200;2023-05-07T19:43:21;94163.06;;;14.69;61.02
55468;BME280;41332;42.702;23.200;2023-05-07T19:45:47;94155.81;;;14.65;60.20
55468;BME280;41332;42.702;23.200;2023-05-07T19:48:14;94149.41;;;14.50;61.50
55468;BME280;41332;42.702;23.200;2023-05-07T19:50:39;94149.69;;;14.45;61.49
55468;BME280;41332;42.702;23.200;2023-05-07T19:53:05;94156.50;;;14.46;61.11
55468;BME280;41332;42.702;23.200;2023-05-07T19:55:30;94151.56;;;14.45;62.47
55468;BME280;41332;42.702;23.200;2023-05-07T19:57:56;94157.88;;;14.40;61.39
55468;BME280;41332;42.702;23.200;2023-05-07T20:00:21;94152.34;;;14.29;61.68
55468;BME280;41332;42.702;23.200;2023-05-07T20:02:50;94156.00;;;14.25;61.65
55468;BME280;41332;42.702;23.200;2023-05-07T20:05:15;94148.56;;;14.14;61.95
55468;BME280;41332;42.702;23.200;2023-05-07T20:07:41;94161.78;;;14.14;62.57
55468;BME280;41332;42.702;23.200;2023-05-07T20:10:07;94150.03;;;14.12;62.71
55468;BME280;41332;42.702;23.200;2023-05-07T20:12:32;94153.59;;;14.04;63.03
55468;BME280;41332;42.702;23.200;2023-05-07T20:14:58;94157.69;;;14.01;63.25
55468;BME280;41332;42.702;23.200;2023-05-07T20:17:26;94159.81;;;13.95;64.13
55468;BME280;41332;42.702;23.200;2023-05-07T20:19:53;94156.16;;;13.84;62.34
55468;BME280;41332;42.702;23.200;2023-05-07T20:22:18;94170.88;;;13.85;64.05
55468;BME280;41332;42.702;23.200;2023-05-07T20:24:44;94169.59;;;13.79;64.20
55468;BME280;41332;42.702;23.200;2023-05-07T20:27:10;94166.34;;;13.70;64.64
55468;BME280;41332;42.702;23.200;2023-05-07T20:29:35;94171.63;;;13.70;64.25
55468;BME280;41332;42.702;23.200;2023-05-07T20:32:01;94171.53;;;13.66;63.89
55468;BME280;41332;42.702;23.200;2023-05-07T20:34:26;94180.44;;;13.61;64.08
55468;BME280;41332;42.702;23.200;2023-05-07T20:36:52;94178.13;;;13.60;64.26
55468;BME280;41332;42.702;23.200;2023-05-07T20:39:18;94184.19;;;13.60;64.25
55468;BME280;41332;42.702;23.200;2023-05-07T20:41:43;94185.09;;;13.52;65.39
55468;BME280;41332;42.702;23.200;2023-05-07T20:44:09;94179.06;;;13.51;65.33
55468;BME280;41332;42.702;23.200;2023-05-07T20:46:36;94175.81;;;13.42;65.78
55468;BME280;41332;42.702;23.200;2023-05-07T20:49:01;94179.19;;;13.43;64.44
55468;BME280;41332;42.702;23.200;2023-05-07T20:51:28;94180.75;;;13.44;65.20
55468;BME280;41332;42.702;23.200;2023-05-07T20:53:53;94178.09;;;13.31;66.37
55468;BME280;41332;42.702;23.200;2023-05-07T20:56:19;94178.00;;;13.28;65.20
55468;BME280;41332;42.702;23.200;2023-05-07T20:58:45;94180.88;;;13.23;65.24
55468;BME280;41332;42.702;23.200;2023-05-07T21:01:11;94181.66;;;13.23;66.14
55468;BME280;41332;42.702;23.200;2023-05-07T21:03:36;94184.84;;;13.16;66.19
55468;BME280;41332;42.702;23.200;2023-05-07T21:06:01;94181.59;;;13.07;67.10
55468;BME280;41332;42.702;23.200;2023-05-07T21:08:28;94180.69;;;13.03;66.96
55468;BME280;41332;42.702;23.200;2023-05-07T21:10:54;94193.22;;;13.06;66.27
55468;BME280;41332;42.702;23.200;2023-05-07T21:13:19;94191.38;;;12.94;67.76
55468;BME280;41332;42.702;23.200;2023-05-07T21:15:45;94195.00;;;12.90;68.20
55468;BME280;41332;42.702;23.200;2023-05-07T21:18:11;94197.09;;;12.84;67.75
55468;BME280;41332;42.702;23.200;2023-05-07T21:20:36;94189.84;;;12.81;67.62
55468;BME280;41332;42.702;23.200;2023-05-07T21:23:02;94188.22;;;12.76;68.46
55468;BME280;41332;42.702;23.200;2023-05-07T21:25:28;94195.69;;;12.74;67.90
55468;BME280;41332;42.702;23.200;2023-05-07T21:27:53;94195.16;;;12.68;67.98
55468;BME280;41332;42.702;23.200;2023-05-07T21:30:19;94195.16;;;12.68;67.74
55468;BME280;41332;42.702;23.200;2023-05-07T21:32:44;94195.91;;;12.69;68.02
55468;BME280;41332;42.702;23.200;2023-05-07T21:35:10;94194.59;;;12.50;68.48
55468;BME280;41332;42.702;23.200;2023-05-07T21:37:35;94199.53;;;12.52;69.24
55468;BME280;41332;42.702;23.200;2023-05-07T21:40:02;94213.56;;;12.56;68.65
55468;BME280;41332;42.702;23.200;2023-05-07T21:42:27;94206.88;;;12.46;69.14
55468;BME280;41332;42.702;23.200;2023-05-07T21:44:53;94203.91;;;12.35;69.07
55468;BME280;41332;42.702;23.200;2023-05-07T21:47:18;94194.66;;;12.29;68.73
55468;BME280;41332;42.702;23.200;2023-05-07T21:49:44;94192.81;;;12.30;68.80
55468;BME280;41332;42.702;23.200;2023-05-07T21:52:14;94202.56;;;12.29;69.83
55468;BME280;41332;42.702;23.200;2023-05-07T21:54:40;94214.09;;;12.25;70.80
55468;BME280;41332;42.702;23.200;2023-05-07T21:57:05;94198.50;;;12.19;70.01
55468;BME280;41332;42.702;23.200;2023-05-07T21:59:31;94225.50;;;12.29;70.09
55468;BME280;41332;42.702;23.200;2023-05-07T22:01:58;94208.72;;;12.21;69.68
55468;BME280;41332;42.702;23.200;2023-05-07T22:04:24;94213.56;;;12.31;69.21
55468;BME280;41332;42.702;23.200;2023-05-07T22:06:51;94215.53;;;12.22;70.06
55468;BME280;41332;42.702;23.200;2023-05-07T22:09:17;94223.41;;;12.22;70.15
55468;BME280;41332;42.702;23.200;2023-05-07T22:11:43;94228.09;;;12.16;69.64
55468;BME280;41332;42.702;23.200;2023-05-07T22:14:08;94230.31;;;12.14;69.10
55468;BME280;41332;42.702;23.200;2023-05-07T22:16:33;94218.81;;;11.85;70.93
55468;BME280;41332;42.702;23.200;2023-05-07T22:18:59;94225.38;;;11.79;71.22
55468;BME280;41332;42.702;23.200;2023-05-07T22:21:25;94222.47;;;11.72;72.64
55468;BME280;41332;42.702;23.200;2023-05-07T22:23:53;94226.09;;;11.67;72.26
55468;BME280;41332;42.702;23.200;2023-05-07T22:26:18;94221.09;;;11.53;72.38
55468;BME280;41332;42.702;23.200;2023-05-07T22:28:44;94227.97;;;11.46;72.96
55468;BME280;41332;42.702;23.200;2023-05-07T22:31:10;94230.91;;;11.44;73.10
55468;BME280;41332;42.702;23.200;2023-05-07T22:33:35;94230.38;;;11.30;73.64
55468;BME280;41332;42.702;23.200;2023-05-07T22:36:00;94233.19;;;11.25;73.85
55468;BME280;41332;42.702;23.200;2023-05-07T22:38:26;94231.03;;;11.27;74.36
55468;BME280;41332;42.702;23.200;2023-05-07T22:40:51;94242.19;;;11.24;74.60
55468;BME280;41332;42.702;23.200;2023-05-07T22:43:17;94228.72;;;11.25;74.50
55468;BME280;41332;42.702;23.200;2023-05-07T22:45:42;94223.19;;;11.18;74.26
55468;BME280;41332;42.702;23.200;2023-05-07T22:48:07;94228.66;;;11.13;74.71
55468;BME280;41332;42.702;23.200;2023-05-07T22:50:37;94228.78;;;11.16;75.17
55468;BME280;41332;42.702;23.200;2023-05-07T22:53:03;94229.69;;;11.20;74.24
55468;BME280;41332;42.702;23.200;2023-05-07T22:55:28;94225.97;;;11.21;74.28
55468;BME280;41332;42.702;23.200;2023-05-07T22:57:54;94228.28;;;11.23;74.11
55468;BME280;41332;42.702;23.200;2023-05-07T23:00:19;94217.13;;;11.26;73.99
55468;BME280;41332;42.702;23.200;2023-05-07T23:02:45;94220.19;;;11.28;73.86
55468;BME280;41332;42.702;23.200;2023-05-07T23:05:10;94219.44;;;11.28;73.83
55468;BME280;41332;42.702;23.200;2023-05-07T23:07:36;94224.03;;;11.31;73.85
55468;BME280;41332;42.702;23.200;2023-05-07T23:10:02;94232.06;;;11.34;73.41
55468;BME280;41332;42.702;23.200;2023-05-07T23:12:28;94221.75;;;11.29;73.33
55468;BME280;41332;42.702;23.200;2023-05-07T23:14:53;94202.97;;;11.18;74.35
55468;BME280;41332;42.702;23.200;2023-05-07T23:17:18;94212.06;;;11.21;73.73
55468;BME280;41332;42.702;23.200;2023-05-07T23:19:44;94214.09;;;11.15;73.75
55468;BME280;41332;42.702;23.200;2023-05-07T23:22:09;94211.53;;;11.07;74.74
55468;BME280;41332;42.702;23.200;2023-05-07T23:24:35;94201.13;;;10.89;75.13
55468;BME280;41332;42.702;23.200;2023-05-07T23:27:04;94206.84;;;10.91;75.42
55468;BME280;41332;42.702;23.200;2023-05-07T23:29:30;94198.41;;;10.77;75.73
55468;BME280;41332;42.702;23.200;2023-05-07T23:31:55;94197.25;;;10.65;76.92
55468;BME280;41332;42.702;23.200;2023-05-07T23:34:21;94200.97;;;10.64;76.19
55468;BME280;41332;42.702;23.200;2023-05-07T23:36:48;94201.56;;;10.61;76.60
55468;BME280;41332;42.702;23.200;2023-05-07T23:39:15;94191.91;;;10.53;77.64
55468;BME280;41332;42.702;23.200;2023-05-07T23:41:40;94190.31;;;10.61;77.22
55468;BME280;41332;42.702;23.200;2023-05-07T23:44:05;94186.75;;;10.65;76.90
55468;BME280;41332;42.702;23.200;2023-05-07T23:46:31;94188.16;;;10.63;76.74
55468;BME280;41332;42.702;23.200;2023-05-07T23:48:56;94186.59;;;10.62;77.36
55468;BME280;41332;42.702;23.200;2023-05-07T23:51:22;94187.03;;;10.64;77.03
55468;BME280;41332;42.702;23.200;2023-05-07T23:53:47;94183.00;;;10.66;76.51
55468;BME280;41332;42.702;23.200;2023-05-07T23:56:13;94176.66;;;10.67;76.11
55468;BME280;41332;42.702;23.200;2023-05-07T23:58:38;94180.19;;;10.71;76.14
